Arnold Palmer Regional Airport
KLBE : now visible

Airfield :











YOU CAN JOIN US ON...

 
LOGIN :

Register | Disclaimer

   EN    FR    IT 

 









Legend :    VFR   Marginal VFR   IFR   Intensive IFR   Very Intensive IFR
Visi :
Ceiling :
>= 8 km
>= 3000ft
5 to 8 km
1000 to 3000 ft
1500m to 5 km
500 to 1000 ft
800 to 1500m
200 to 500 ft
< 800m
< 200 ft
Symbols :   Thunderstorms  Fog  Heavy snow  Heavy precipitations  Wind > 20 kt






- Airport Elevation : 1199 ft
- IATA code : LBE


KLBE - Arnold Palmer Regional

CURRENT METAR :
  • 141951Z 24011G26KT 3SM -RA BKN009 OVC014 02/02 A2946

EXPIRED METARs :
  • 141851Z 27012G23KT 3SM -RA OVC009 03/03 A2941
  • 141751Z 24017G23KT 3SM -RA BKN009 OVC020 03/03 A2939

TAF KLBE
Valid from the 14 at 18:00 until the 15 at 18:00 UTC


141734Z 1418/1518 27012G20KT 4SM -SNRA OVC005
FM142000 30012G21KT 3SM -SN OVC007
FM150500 26011G18KT P6SM VCSH OVC010
FM151500 27010KT P6SM OVC020



MET'MAP, your aeronautical weather chart ! - Copyright ORBIFLY December 2007 - Disclaimer

ORBIFLY MET'MAP TEAM :

Programming & Development : Alexandra Zaïnal
Concept & original design : Baudouin d'Aumeries
Assistance for programming : Marc-Olivier Méhu
Technical & hardware support : Manuel Goepfert

Contact : metmap@orbifly.com




SOURCES & CREDITS :

   NOAA       Earth
Advisory